Kezdőlap
METAR-TAF:

METAR-TAF

Repülőterek :

Caracas, Venezuela

földrajzi szélesség: 10-36N, földrajzi hosszúság: 066-59W, magasság: 43 m

Jelenlegi meteorológiai megfigyelések

A jelentés 42 perccel ezelõtt készült, 04:00 UTC
Szélcsend
Hőmérséklet 25°C
Páratartalom 74%
Légköri nyomás 1013 hPa
Látótávolság 10 km, vagy több
Kevés felhő 1600 lábon

METAR: SVMI 100400Z 00000KT 9999 FEW016 25/20 Q1013

Idő: 00:42 (04:42 UTC)

Előrejelzés

A jelentés 6 órával és 42 perccel ezelõtt készült, 22:00 UTC
Az előrejelzés 10-én 00 óra UTC és 11-én 00 óra UTC között érvényes
Kelet-északkeleti szél 4 kt
Látótávolság 10 km, vagy több
Szórványos felhőzet 1600 lábon
10-én 01 óra UTC és 10-én 07 óra UTC között fokozatosan kialakuló
Északi szél kt
Kevés felhő 1600 lábon

TAF: SVMI 092200Z 1000/1100 07004KT 9999 SCT016 TX33/18Z TN23/07Z BECMG 1001/1007 00000KT FEW016

Meteorológiai megfigyelések és előrejelzések több, mint 4000 repülőtéren (METAR és TAF jelentéseket).

A térképen piros és sárga pontok jelzik az elérhető meteorológiai állomásokat.

Mozgassa az egeret a pont fölött, hogy megjelenjen az állomás neve.

Azután kattintson az időjárási megfigyelések és előrejelzések megtekintéséhez.

A térkép megváltoztatása: kattintson a fekete keresztel jelölt zöld gombra ráközelítéshez, a vonallal jelölt zöld gombra távolításhoz, vagy a zöld nyilakra a szomszédos térképek eléréséhez.


METAR-TAF: